createdAt,value
2022-10-06T00:01:14.797Z,0.60
2022-10-06T00:03:43.795Z,0.60
2022-10-06T00:06:13.718Z,2.45
2022-10-06T00:08:43.234Z,0.90
2022-10-06T00:11:12.806Z,1.50
2022-10-06T00:13:41.210Z,0.98
2022-10-06T00:16:17.376Z,1.30
2022-10-06T00:18:45.878Z,0.70
2022-10-06T00:21:13.798Z,0.63
2022-10-06T00:23:44.565Z,0.87
2022-10-06T00:26:16.899Z,2.10
2022-10-06T00:28:45.575Z,0.95
2022-10-06T00:31:15.386Z,3.22
2022-10-06T00:33:43.573Z,1.75
2022-10-06T00:36:11.469Z,2.60
2022-10-06T00:38:39.534Z,3.10
2022-10-06T00:41:13.434Z,2.60
2022-10-06T00:43:48.795Z,1.83
2022-10-06T00:46:23.295Z,1.95
2022-10-06T00:48:59.787Z,0.80
2022-10-06T00:51:29.092Z,0.60
2022-10-06T00:53:58.056Z,0.95
2022-10-06T00:56:26.728Z,1.65
2022-10-06T00:58:54.780Z,0.60
2022-10-06T01:01:24.754Z,1.20
2022-10-06T01:03:56.750Z,1.83
2022-10-06T01:06:24.849Z,0.57
2022-10-06T01:08:53.495Z,0.90
2022-10-06T01:11:21.630Z,0.57
2022-10-06T01:13:49.742Z,2.33
2022-10-06T01:16:23.341Z,3.22
2022-10-06T01:18:56.129Z,0.67
2022-10-06T01:21:32.311Z,1.47
2022-10-06T01:24:05.075Z,0.90
2022-10-06T01:26:37.024Z,1.33
2022-10-06T01:29:05.375Z,1.50
2022-10-06T01:31:33.663Z,0.63
2022-10-06T01:34:01.821Z,0.68
2022-10-06T01:36:30.067Z,0.50
2022-10-06T01:38:58.005Z,0.90
2022-10-06T01:41:27.856Z,1.80
2022-10-06T01:43:56.523Z,1.13
2022-10-06T01:46:24.504Z,0.80
2022-10-06T01:48:52.842Z,1.35
2022-10-06T01:51:20.747Z,1.00
2022-10-06T01:53:48.743Z,0.50
2022-10-06T01:56:16.691Z,0.40
2022-10-06T01:58:46.138Z,1.35
2022-10-06T02:01:14.161Z,1.55
2022-10-06T02:03:42.810Z,0.90
2022-10-06T02:06:11.733Z,0.50
2022-10-06T02:08:39.951Z,0.82
2022-10-06T02:11:10.192Z,0.65
2022-10-06T02:13:46.114Z,1.10
2022-10-06T02:16:14.462Z,1.50
2022-10-06T02:18:43.830Z,3.30
2022-10-06T02:21:16.635Z,2.08
2022-10-06T02:23:44.879Z,6.60
2022-10-06T02:26:14.027Z,5.65
2022-10-06T02:28:42.215Z,3.10
2022-10-06T02:31:15.136Z,4.15
2022-10-06T02:33:44.787Z,3.67
2022-10-06T02:36:15.678Z,2.28
2022-10-06T02:38:44.660Z,1.90
2022-10-06T02:41:12.673Z,3.00
2022-10-06T02:43:41.182Z,2.40
2022-10-06T02:46:13.971Z,3.83
2022-10-06T02:48:49.129Z,2.30
2022-10-06T02:51:19.320Z,1.95
2022-10-06T02:53:49.145Z,3.00
2022-10-06T02:56:20.670Z,2.00
2022-10-06T02:58:49.368Z,1.05
2022-10-06T03:01:30.385Z,3.60
2022-10-06T03:04:02.700Z,0.60
2022-10-06T03:06:31.972Z,0.70
2022-10-06T03:09:08.155Z,2.08
2022-10-06T03:11:40.372Z,0.63
2022-10-06T03:14:10.243Z,1.30
2022-10-06T03:16:40.501Z,0.80
2022-10-06T03:19:15.334Z,0.60
2022-10-06T03:21:46.240Z,0.50
2022-10-06T03:24:16.401Z,1.83
2022-10-06T03:26:48.546Z,2.70
2022-10-06T03:29:18.128Z,1.20
2022-10-06T03:31:51.260Z,0.60
2022-10-06T03:34:21.953Z,2.00
2022-10-06T03:36:49.951Z,1.90
2022-10-06T03:39:21.699Z,1.50
2022-10-06T03:41:50.852Z,2.25
2022-10-06T03:44:18.978Z,0.57
2022-10-06T03:46:48.181Z,0.70
2022-10-06T03:49:16.263Z,5.40
2022-10-06T03:51:45.728Z,1.15
2022-10-06T03:54:21.691Z,0.80
2022-10-06T03:56:51.663Z,1.45
2022-10-06T03:59:20.952Z,0.77
2022-10-06T04:01:50.251Z,1.10
2022-10-06T04:04:27.701Z,1.70
2022-10-06T04:07:02.285Z,2.20
2022-10-06T04:09:30.292Z,1.05
2022-10-06T04:11:58.530Z,1.23
2022-10-06T04:14:26.581Z,2.27
2022-10-06T04:16:57.119Z,2.67
2022-10-06T04:19:32.754Z,2.50
2022-10-06T04:22:02.125Z,2.15
2022-10-06T04:24:31.161Z,2.30
2022-10-06T04:27:19.947Z,2.10
2022-10-06T04:29:56.360Z,0.70
2022-10-06T04:32:24.625Z,0.80
2022-10-06T04:34:53.066Z,0.60
2022-10-06T04:37:22.467Z,3.10
2022-10-06T04:39:50.417Z,1.40
2022-10-06T04:42:19.067Z,0.63
2022-10-06T04:44:46.946Z,1.20
2022-10-06T04:47:15.213Z,0.68
2022-10-06T04:49:43.157Z,1.50
2022-10-06T04:52:11.425Z,0.60
2022-10-06T04:54:41.999Z,0.82
2022-10-06T04:57:10.395Z,2.77
2022-10-06T10:37:51.364Z,1.25
2022-10-06T10:43:01.887Z,1.10
2022-10-06T10:45:34.227Z,1.27
2022-10-06T10:48:06.073Z,1.15
2022-10-06T10:50:38.676Z,1.13
2022-10-06T10:53:12.576Z,1.10
2022-10-06T10:55:45.874Z,0.90
2022-10-06T10:58:22.695Z,1.48
2022-10-06T11:00:54.670Z,1.08
2022-10-06T11:03:22.757Z,1.20
2022-10-06T11:06:16.329Z,1.20
2022-10-06T11:08:53.538Z,1.30
2022-10-06T11:11:41.004Z,1.02
2022-10-06T11:14:16.684Z,2.17
2022-10-06T11:16:53.611Z,1.02
2022-10-06T11:19:29.856Z,2.13
2022-10-06T11:22:02.863Z,0.97
2022-10-06T11:24:37.655Z,1.50
2022-10-06T11:27:25.318Z,1.80
2022-10-06T11:30:06.597Z,2.10
2022-10-06T11:32:46.359Z,0.50
2022-10-06T11:35:20.531Z,2.08
2022-10-06T11:37:54.879Z,1.00
2022-10-06T11:40:38.308Z,1.88
2022-10-06T11:43:17.113Z,1.00
2022-10-06T11:45:53.066Z,0.63
2022-10-06T11:48:27.725Z,0.70
2022-10-06T11:50:59.051Z,1.80
2022-10-06T11:53:41.941Z,0.85
2022-10-06T11:56:37.814Z,0.70
2022-10-06T11:59:31.968Z,1.58
2022-10-06T12:02:03.126Z,2.03
2022-10-06T12:04:31.312Z,0.75
2022-10-06T12:07:01.551Z,0.60
2022-10-06T12:09:41.414Z,1.17
2022-10-06T12:12:44.088Z,0.70
2022-10-06T12:18:36.854Z,0.80
2022-10-06T12:21:23.327Z,0.70
2022-10-06T12:24:18.488Z,1.50
2022-10-06T12:27:00.471Z,1.33
2022-10-06T12:29:38.896Z,1.08
2022-10-06T12:32:18.819Z,0.82
2022-10-06T12:35:12.759Z,0.80
2022-10-06T12:37:50.104Z,0.83
2022-10-06T12:40:44.124Z,1.35
2022-10-06T12:43:57.034Z,0.95
2022-10-06T12:46:50.436Z,1.70
2022-10-06T12:49:44.476Z,0.90
2022-10-06T12:52:31.400Z,0.60
2022-10-06T12:55:28.378Z,1.38
2022-10-06T12:57:56.305Z,0.90
2022-10-06T13:02:58.445Z,1.88
2022-10-06T13:05:28.313Z,1.08
2022-10-06T13:07:58.394Z,1.15
2022-10-06T13:10:29.255Z,1.20
2022-10-06T13:12:58.941Z,1.38
2022-10-06T13:18:13.001Z,1.17
2022-10-06T13:20:44.772Z,0.73
2022-10-06T13:23:31.466Z,2.60
2022-10-06T13:26:00.778Z,1.73
2022-10-06T13:28:32.130Z,2.55
2022-10-06T13:33:34.369Z,1.15
2022-10-06T13:36:03.875Z,1.20
2022-10-06T13:38:35.102Z,1.13
2022-10-06T13:41:17.007Z,1.73
2022-10-06T13:43:48.692Z,0.95
2022-10-06T13:46:20.458Z,1.80
2022-10-06T13:48:52.398Z,1.40
2022-10-06T13:51:29.878Z,1.55
2022-10-06T13:53:58.978Z,1.90
2022-10-06T13:56:35.896Z,1.15
2022-10-06T13:59:27.937Z,1.50
2022-10-06T14:01:56.634Z,2.10
2022-10-06T14:04:24.702Z,2.28
2022-10-06T14:06:57.315Z,1.83
2022-10-06T14:09:27.751Z,1.30
2022-10-06T14:12:04.980Z,1.33
2022-10-06T14:14:34.072Z,0.90
2022-10-06T14:17:02.439Z,1.47
2022-10-06T14:19:34.113Z,1.77
2022-10-06T14:22:04.738Z,1.27
2022-10-06T14:24:37.287Z,1.08
2022-10-06T14:27:07.592Z,1.10
2022-10-06T14:29:37.954Z,1.23
2022-10-06T14:32:11.539Z,1.20
2022-10-06T14:34:40.581Z,0.60
2022-10-06T14:37:13.296Z,1.10
2022-10-06T14:39:41.356Z,0.60
2022-10-06T14:42:18.743Z,1.30
2022-10-06T14:44:48.189Z,0.93
2022-10-06T14:47:16.776Z,0.70
2022-10-06T14:49:45.265Z,1.20
2022-10-06T14:52:14.531Z,0.93
2022-10-06T14:54:42.968Z,0.75
2022-10-06T14:57:10.934Z,0.90
2022-10-06T14:59:38.867Z,0.65
2022-10-06T15:02:07.527Z,0.60
2022-10-06T15:04:38.264Z,0.83
2022-10-06T15:07:23.712Z,0.90
2022-10-06T15:09:53.045Z,2.00
2022-10-06T15:12:20.980Z,1.10
2022-10-06T15:14:48.926Z,1.60
2022-10-06T15:17:16.849Z,0.80
2022-10-06T15:19:44.792Z,1.30
2022-10-06T15:22:12.762Z,1.70
2022-10-06T15:24:40.669Z,1.25
2022-10-06T15:27:28.144Z,1.55
2022-10-06T15:29:56.792Z,3.45
2022-10-06T15:32:24.711Z,0.70
2022-10-06T15:34:53.016Z,1.10
2022-10-06T15:37:20.955Z,0.93
2022-10-06T15:39:48.938Z,1.60
2022-10-06T15:42:21.798Z,1.60
2022-10-06T15:44:49.956Z,2.25
2022-10-06T15:47:18.584Z,2.40
2022-10-06T15:49:47.026Z,2.55
2022-10-06T15:52:15.427Z,1.63
2022-10-06T15:54:43.731Z,1.15
2022-10-06T15:57:19.501Z,1.65
2022-10-06T15:59:50.366Z,1.70
2022-10-06T16:02:21.034Z,1.55
2022-10-06T16:05:16.441Z,1.80
2022-10-06T16:07:44.456Z,2.07
2022-10-06T16:10:13.498Z,3.67
2022-10-06T16:12:41.425Z,1.92
2022-10-06T16:15:11.639Z,2.50
2022-10-06T16:17:39.612Z,2.00
2022-10-06T16:20:09.266Z,2.95
2022-10-06T16:22:37.578Z,1.95
2022-10-06T16:25:06.366Z,2.47
2022-10-06T16:27:37.650Z,2.50
2022-10-06T16:30:08.516Z,2.92
2022-10-06T16:32:38.168Z,4.55
2022-10-06T16:35:07.275Z,5.90
2022-10-06T16:37:35.189Z,3.05
2022-10-06T16:40:03.142Z,2.42
2022-10-06T16:42:31.034Z,3.60
2022-10-06T16:44:58.946Z,3.23
2022-10-06T16:47:26.826Z,3.03
2022-10-06T16:49:56.088Z,3.60
2022-10-06T16:52:24.137Z,5.22
2022-10-06T16:54:52.048Z,2.28
2022-10-06T16:57:20.017Z,1.88
2022-10-06T16:59:47.984Z,2.30
2022-10-06T17:02:15.900Z,2.15
2022-10-06T17:04:43.912Z,3.42
2022-10-06T17:07:13.282Z,2.47
2022-10-06T17:09:51.078Z,4.82
2022-10-06T17:12:29.135Z,3.47
2022-10-06T17:14:57.029Z,1.83
2022-10-06T17:17:25.103Z,1.83
2022-10-06T17:19:53.868Z,3.78
2022-10-06T17:22:23.269Z,3.57
2022-10-06T17:24:51.232Z,4.15
2022-10-06T17:27:19.171Z,4.97
2022-10-06T17:29:47.106Z,4.43
2022-10-06T17:32:15.195Z,3.28
2022-10-06T17:34:43.120Z,1.92
2022-10-06T17:37:10.992Z,2.53
2022-10-06T17:39:44.768Z,3.17
2022-10-06T17:42:15.214Z,3.03
2022-10-06T17:44:43.135Z,2.97
2022-10-06T17:47:12.614Z,2.40
2022-10-06T17:49:40.511Z,1.80
2022-10-06T17:52:08.525Z,2.22
2022-10-06T17:54:36.432Z,3.10
2022-10-06T17:57:05.739Z,2.38
2022-10-06T17:59:33.872Z,2.87
2022-10-06T18:02:03.682Z,2.30
2022-10-06T18:04:33.788Z,1.73
2022-10-06T18:07:03.223Z,1.90
2022-10-06T18:09:31.250Z,4.50
2022-10-06T18:12:00.110Z,3.28
2022-10-06T18:14:33.264Z,3.65
2022-10-06T18:17:03.806Z,2.40
2022-10-06T18:19:33.913Z,4.50
2022-10-06T18:22:03.902Z,2.75
2022-10-06T18:24:32.669Z,2.70
2022-10-06T18:27:02.156Z,3.00
2022-10-06T18:29:33.188Z,2.90
2022-10-06T18:32:27.229Z,3.65
2022-10-06T18:37:37.630Z,2.53
2022-10-06T18:40:08.738Z,3.17
2022-10-06T18:42:36.938Z,3.22
2022-10-06T18:45:25.580Z,2.58
2022-10-06T18:48:10.923Z,2.10
2022-10-06T18:50:39.453Z,4.03
2022-10-06T18:53:07.433Z,2.97
2022-10-06T18:55:35.387Z,3.03
2022-10-06T18:58:04.755Z,4.45
2022-10-06T19:00:34.405Z,3.60
2022-10-06T19:03:02.363Z,2.42
2022-10-06T19:05:31.027Z,3.85
2022-10-06T19:07:59.071Z,3.47
2022-10-06T19:10:26.987Z,2.92
2022-10-06T19:12:58.223Z,3.73
2022-10-06T19:15:26.160Z,4.00
2022-10-06T19:17:55.405Z,2.78
2022-10-06T19:20:23.545Z,3.65
2022-10-06T19:22:51.440Z,4.50
2022-10-06T19:25:19.650Z,6.18
2022-10-06T19:27:48.277Z,4.95
2022-10-06T19:30:16.303Z,4.85
2022-10-06T19:32:44.279Z,5.10
2022-10-06T19:35:13.680Z,4.53
2022-10-06T19:37:41.989Z,6.47
2022-10-06T19:40:11.423Z,4.33
2022-10-06T19:42:47.497Z,3.67
2022-10-06T19:45:16.496Z,3.87
2022-10-06T19:47:46.457Z,4.45
2022-10-06T19:50:17.480Z,2.60
2022-10-06T19:52:46.040Z,5.88
2022-10-06T19:55:14.035Z,3.22
2022-10-06T19:57:43.085Z,3.05
2022-10-06T20:00:14.704Z,2.30
2022-10-06T20:02:43.894Z,2.00
2022-10-06T20:05:12.938Z,2.10
2022-10-06T20:07:44.152Z,2.95
2022-10-06T20:10:12.915Z,2.38
2022-10-06T20:12:42.122Z,1.97
2022-10-06T20:15:10.996Z,2.88
2022-10-06T20:17:39.362Z,1.33
2022-10-06T20:20:08.039Z,2.73
2022-10-06T20:22:35.962Z,3.70
2022-10-06T20:25:07.050Z,3.80
2022-10-06T20:27:35.129Z,2.70
2022-10-06T20:30:03.058Z,2.73
2022-10-06T20:32:31.091Z,2.97
2022-10-06T20:34:59.096Z,3.95
2022-10-06T20:37:27.424Z,3.78
2022-10-06T20:40:12.667Z,4.82
2022-10-06T20:42:45.059Z,3.55
2022-10-06T20:45:13.020Z,3.30
2022-10-06T20:47:41.143Z,2.38
2022-10-06T20:50:10.457Z,2.88
2022-10-06T20:52:38.734Z,3.83
2022-10-06T20:55:08.600Z,2.15
2022-10-06T20:57:36.874Z,2.60
2022-10-06T21:00:07.310Z,3.42
2022-10-06T21:02:35.480Z,2.80
2022-10-06T21:05:03.493Z,2.38
2022-10-06T21:07:31.652Z,2.03
2022-10-06T21:09:59.578Z,2.72
2022-10-06T21:12:28.472Z,3.03
2022-10-06T21:14:57.471Z,3.45
2022-10-06T21:17:26.740Z,3.80
2022-10-06T21:19:54.702Z,2.55
2022-10-06T21:22:22.691Z,3.10
2022-10-06T21:24:50.562Z,3.90
2022-10-06T21:27:19.023Z,3.77
2022-10-06T21:29:47.714Z,3.17
2022-10-06T21:32:15.723Z,3.80
2022-10-06T21:34:45.009Z,2.70
2022-10-06T21:37:13.850Z,3.42
2022-10-06T21:39:42.169Z,3.88
2022-10-06T21:42:10.175Z,4.45
2022-10-06T21:44:38.108Z,3.78
2022-10-06T21:47:06.427Z,2.60
2022-10-06T21:49:34.511Z,2.75
2022-10-06T21:52:05.460Z,3.03
2022-10-06T21:54:33.575Z,6.47
2022-10-06T21:57:01.933Z,4.57
2022-10-06T21:59:29.972Z,4.07
2022-10-06T22:04:26.095Z,4.35
2022-10-06T22:06:54.051Z,3.20
2022-10-06T22:09:23.714Z,4.22
2022-10-06T22:11:51.705Z,2.97
2022-10-06T22:14:20.560Z,3.28
2022-10-06T22:16:48.551Z,4.95
2022-10-06T22:19:17.870Z,4.63
2022-10-06T22:21:47.469Z,4.18
2022-10-06T22:24:17.142Z,5.18
2022-10-06T22:26:47.492Z,6.47
2022-10-06T22:29:17.265Z,4.00
2022-10-06T22:31:47.258Z,6.10
2022-10-06T22:34:17.226Z,5.28
2022-10-06T22:36:45.294Z,4.68
2022-10-06T22:39:13.228Z,5.53
2022-10-06T22:41:41.287Z,4.40
2022-10-06T22:59:00.819Z,6.13
2022-10-06T23:01:30.874Z,5.87
2022-10-06T23:03:59.314Z,3.95
2022-10-06T23:06:29.738Z,7.87
2022-10-06T23:08:58.245Z,5.07
2022-10-06T23:11:26.225Z,3.05
2022-10-06T23:13:54.245Z,4.20
2022-10-06T23:16:23.745Z,4.43
2022-10-06T23:18:53.269Z,3.88
2022-10-06T23:21:23.950Z,5.60
2022-10-06T23:23:53.339Z,5.93
2022-10-06T23:26:22.392Z,7.13
2022-10-06T23:28:53.398Z,5.45
2022-10-06T23:31:21.567Z,6.03
2022-10-06T23:33:49.821Z,3.65
2022-10-06T23:36:19.780Z,5.82
2022-10-06T23:38:48.595Z,4.77
2022-10-06T23:41:17.072Z,4.10
2022-10-06T23:43:45.097Z,4.68
2022-10-06T23:46:13.629Z,8.60
2022-10-06T23:48:41.751Z,5.57
2022-10-06T23:51:11.563Z,7.13
2022-10-06T23:53:41.565Z,6.72
2022-10-06T23:58:39.362Z,6.90
